createdAt,value
2022-09-27T00:01:47.711Z,1.20
2022-09-27T00:04:14.549Z,0.90
2022-09-27T00:06:41.312Z,1.08
2022-09-27T00:09:08.281Z,0.95
2022-09-27T00:11:40.766Z,1.10
2022-09-27T00:14:08.898Z,0.90
2022-09-27T00:16:39.007Z,1.33
2022-09-27T00:19:13.898Z,1.60
2022-09-27T00:21:42.065Z,1.60
2022-09-27T00:24:16.980Z,1.20
2022-09-27T00:26:43.947Z,1.40
2022-09-27T00:29:11.202Z,1.30
2022-09-27T00:31:38.674Z,1.30
2022-09-27T00:34:07.334Z,1.23
2022-09-27T00:36:34.911Z,1.33
2022-09-27T00:39:01.933Z,1.20
2022-09-27T00:41:32.100Z,1.50
2022-09-27T00:44:02.274Z,1.50
2022-09-27T00:46:36.854Z,1.27
2022-09-27T00:49:16.276Z,1.50
2022-09-27T00:51:46.209Z,1.48
2022-09-27T00:54:15.282Z,1.33
2022-09-27T00:56:44.803Z,1.45
2022-09-27T00:59:21.029Z,1.25
2022-09-27T01:01:49.558Z,1.23
2022-09-27T01:04:21.679Z,1.30
2022-09-27T01:06:48.802Z,1.35
2022-09-27T01:09:16.131Z,1.35
2022-09-27T01:11:50.282Z,1.50
2022-09-27T01:14:38.872Z,1.35
2022-09-27T01:17:27.313Z,1.30
2022-09-27T01:20:15.355Z,1.33
2022-09-27T01:23:06.344Z,1.40
2022-09-27T01:25:45.410Z,1.50
2022-09-27T01:28:40.205Z,1.40
2022-09-27T01:31:16.347Z,1.40
2022-09-27T01:34:17.235Z,1.55
2022-09-27T01:36:56.735Z,1.70
2022-09-27T01:39:33.000Z,1.35
2022-09-27T01:42:26.058Z,1.47
2022-09-27T01:45:06.905Z,1.55
2022-09-27T01:48:03.957Z,1.30
2022-09-27T01:51:09.696Z,1.40
2022-09-27T01:53:40.943Z,1.60
2022-09-27T01:56:33.587Z,1.80
2022-09-27T01:59:23.305Z,1.10
2022-09-27T02:02:07.378Z,1.30
2022-09-27T02:04:59.733Z,1.00
2022-09-27T02:07:38.455Z,1.00
2022-09-27T02:10:13.714Z,1.23
2022-09-27T02:13:23.816Z,1.30
2022-09-27T02:16:08.731Z,1.00
2022-09-27T02:18:55.289Z,1.33
2022-09-27T02:21:30.958Z,1.10
2022-09-27T02:24:03.379Z,1.03
2022-09-27T02:26:45.663Z,1.42
2022-09-27T02:29:22.295Z,1.52
2022-09-27T02:31:52.605Z,1.50
2022-09-27T02:34:28.469Z,1.20
2022-09-27T02:36:55.843Z,1.37
2022-09-27T02:39:23.804Z,1.55
2022-09-27T02:41:59.641Z,1.40
2022-09-27T02:44:28.865Z,1.60
2022-09-27T02:47:10.762Z,1.25
2022-09-27T02:49:47.019Z,1.50
2022-09-27T02:53:06.229Z,1.30
2022-09-27T02:56:09.558Z,1.50
2022-09-27T02:59:28.610Z,1.25
2022-09-27T03:02:19.221Z,1.30
2022-09-27T03:05:10.033Z,1.30
2022-09-27T03:07:37.102Z,1.42
2022-09-27T03:10:04.741Z,1.40
2022-09-27T03:12:32.741Z,1.75
2022-09-27T03:15:01.033Z,1.40
2022-09-27T03:17:53.535Z,1.70
2022-09-27T03:20:38.749Z,1.48
2022-09-27T03:23:11.041Z,1.58
2022-09-27T03:25:37.899Z,1.38
2022-09-27T03:28:05.084Z,1.50
2022-09-27T03:30:32.714Z,1.30
2022-09-27T03:32:59.563Z,1.48
2022-09-27T03:35:44.785Z,1.60
2022-09-27T03:38:12.882Z,1.35
2022-09-27T03:40:40.392Z,1.30
2022-09-27T03:43:08.256Z,1.67
2022-09-27T03:45:35.038Z,1.33
2022-09-27T03:48:07.185Z,1.70
2022-09-27T03:50:34.488Z,1.23
2022-09-27T03:53:01.447Z,1.50
2022-09-27T03:55:28.211Z,1.50
2022-09-27T03:57:55.566Z,1.25
2022-09-27T04:00:22.666Z,1.08
2022-09-27T04:02:49.579Z,1.30
2022-09-27T04:05:39.649Z,1.45
2022-09-27T04:08:10.794Z,1.40
2022-09-27T04:10:39.269Z,1.33
2022-09-27T04:13:06.408Z,1.30
2022-09-27T04:15:38.937Z,1.42
2022-09-27T04:18:24.080Z,1.05
2022-09-27T04:20:56.730Z,1.00
2022-09-27T04:23:27.647Z,1.27
2022-09-27T04:25:56.610Z,0.95
2022-09-27T04:28:54.114Z,1.00
2022-09-27T04:31:23.595Z,1.10
2022-09-27T04:33:54.532Z,1.20
2022-09-27T04:36:28.009Z,1.45
2022-09-27T04:39:18.045Z,1.10
2022-09-27T04:41:45.869Z,1.38
2022-09-27T04:44:13.452Z,1.27
2022-09-27T04:46:44.475Z,1.30
2022-09-27T04:49:12.230Z,1.13
2022-09-27T04:51:39.559Z,0.65
2022-09-27T04:54:06.414Z,0.80
2022-09-27T04:56:37.111Z,0.70
2022-09-27T04:59:09.957Z,0.90
2022-09-27T05:01:38.790Z,0.70
2022-09-27T05:04:16.594Z,0.85
2022-09-27T05:06:48.386Z,0.60
2022-09-27T05:09:23.932Z,0.80
2022-09-27T05:11:53.685Z,1.00
2022-09-27T05:14:20.466Z,1.10
2022-09-27T05:16:55.976Z,0.85
2022-09-27T05:19:45.569Z,1.02
2022-09-27T05:22:17.814Z,0.93
2022-09-27T05:24:45.996Z,0.93
2022-09-27T05:27:14.743Z,0.88
2022-09-27T05:29:41.463Z,0.90
2022-09-27T05:32:13.128Z,1.10
2022-09-27T05:34:39.912Z,0.90
2022-09-27T05:37:06.757Z,1.20
2022-09-27T05:39:38.015Z,1.00
2022-09-27T05:42:05.010Z,1.30
2022-09-27T05:44:31.839Z,1.52
2022-09-27T05:47:03.666Z,1.42
2022-09-27T05:49:32.406Z,1.63
2022-09-27T05:52:00.891Z,1.63
2022-09-27T05:54:28.606Z,3.70
2022-09-27T05:56:57.057Z,3.05
2022-09-27T05:59:42.476Z,2.92
2022-09-27T06:02:21.201Z,2.70
2022-09-27T06:05:08.256Z,2.33
2022-09-27T06:08:02.333Z,1.88
2022-09-27T06:10:35.661Z,2.10
2022-09-27T06:13:07.140Z,1.90
2022-09-27T06:15:39.029Z,2.20
2022-09-27T06:18:14.388Z,1.75
2022-09-27T06:20:41.328Z,2.20
2022-09-27T06:23:09.489Z,2.50
2022-09-27T06:25:38.069Z,2.17
2022-09-27T06:28:18.294Z,2.40
2022-09-27T06:30:49.825Z,2.33
2022-09-27T06:33:36.901Z,2.08
2022-09-27T06:36:07.479Z,2.30
2022-09-27T06:38:36.436Z,1.80
2022-09-27T06:41:11.859Z,1.70
2022-09-27T06:43:53.556Z,1.45
2022-09-27T06:46:38.892Z,1.80
2022-09-27T06:49:11.693Z,2.28
2022-09-27T06:51:39.906Z,1.80
2022-09-27T06:54:06.838Z,2.50
2022-09-27T06:56:33.525Z,2.05
2022-09-27T06:59:00.948Z,1.80
2022-09-27T07:01:56.943Z,1.90
2022-09-27T07:04:59.239Z,1.83
2022-09-27T07:07:38.727Z,1.90
2022-09-27T07:10:09.705Z,1.92
2022-09-27T07:12:38.009Z,2.15
2022-09-27T07:15:06.263Z,1.95
2022-09-27T07:17:33.210Z,2.20
2022-09-27T07:20:00.146Z,1.90
2022-09-27T07:22:26.991Z,2.10
2022-09-27T07:25:00.268Z,1.90
2022-09-27T07:27:27.191Z,2.00
2022-09-27T07:29:54.944Z,2.40
2022-09-27T07:32:23.194Z,2.70
2022-09-27T07:34:50.007Z,2.20
2022-09-27T07:37:16.803Z,2.40
2022-09-27T07:39:45.281Z,2.38
2022-09-27T07:42:13.395Z,2.30
2022-09-27T07:44:43.851Z,2.87
2022-09-27T07:47:30.859Z,2.38
2022-09-27T07:50:11.154Z,2.50
2022-09-27T07:52:59.285Z,2.90
2022-09-27T07:55:41.425Z,2.97
2022-09-27T07:58:12.125Z,3.00
2022-09-27T08:00:40.062Z,3.90
2022-09-27T08:03:12.959Z,3.40
2022-09-27T08:05:39.656Z,3.47
2022-09-27T08:08:06.460Z,3.70
2022-09-27T08:10:34.168Z,3.80
2022-09-27T08:13:02.986Z,3.50
2022-09-27T08:15:34.258Z,3.90
2022-09-27T08:18:01.382Z,3.63
2022-09-27T08:20:46.869Z,3.70
2022-09-27T08:23:34.531Z,3.77
2022-09-27T08:26:12.890Z,2.70
2022-09-27T08:28:54.874Z,2.10
2022-09-27T08:31:25.382Z,1.50
2022-09-27T08:33:54.610Z,1.60
2022-09-27T08:36:22.456Z,1.30
2022-09-27T08:38:50.503Z,0.90
2022-09-27T08:41:40.154Z,0.77
2022-09-27T08:44:13.597Z,1.02
2022-09-27T08:47:06.946Z,0.90
2022-09-27T08:49:38.648Z,1.10
2022-09-27T08:52:13.367Z,1.10
2022-09-27T08:54:40.457Z,0.90
2022-09-27T08:57:12.548Z,1.40
2022-09-27T09:00:03.158Z,0.65
2022-09-27T09:02:29.957Z,0.67
2022-09-27T09:05:14.346Z,0.90
2022-09-27T09:08:25.476Z,0.70
2022-09-27T09:11:16.438Z,0.70
2022-09-27T09:13:59.358Z,0.40
2022-09-27T09:16:44.017Z,0.47
2022-09-27T09:19:23.088Z,0.40
2022-09-27T09:22:44.106Z,0.77
2022-09-27T09:25:45.083Z,0.43
2022-09-27T09:28:17.771Z,0.70
2022-09-27T09:31:24.536Z,0.80
2022-09-27T09:33:59.961Z,1.08
2022-09-27T09:36:32.229Z,1.02
2022-09-27T09:39:05.555Z,1.00
2022-09-27T09:41:43.647Z,0.90
2022-09-27T09:44:27.732Z,0.90
2022-09-27T09:46:58.033Z,1.50
2022-09-27T09:49:25.560Z,1.08
2022-09-27T09:51:56.810Z,1.10
2022-09-27T09:54:40.888Z,0.63
2022-09-27T09:57:10.658Z,1.10
2022-09-27T09:59:48.176Z,1.00
2022-09-27T10:02:38.324Z,0.90
2022-09-27T10:05:16.596Z,0.82
2022-09-27T10:07:45.306Z,0.65
2022-09-27T10:10:17.639Z,0.60
2022-09-27T10:12:53.441Z,0.90
2022-09-27T10:15:29.038Z,0.20
2022-09-27T10:17:59.065Z,0.00
2022-09-27T10:20:33.782Z,0.20
2022-09-27T10:23:11.574Z,0.10
2022-09-27T10:25:55.921Z,0.10
2022-09-27T10:28:45.321Z,0.10
2022-09-27T10:31:18.031Z,0.00
2022-09-27T10:34:17.566Z,0.00
2022-09-27T10:37:03.069Z,0.10
2022-09-27T10:39:30.451Z,0.00
2022-09-27T10:41:58.171Z,0.00
2022-09-27T10:44:39.724Z,0.10
2022-09-27T10:47:27.653Z,0.05
2022-09-27T10:50:38.712Z,0.10
2022-09-27T10:53:25.758Z,0.10
2022-09-27T10:56:04.797Z,0.10
2022-09-27T10:58:36.152Z,0.00
2022-09-27T11:01:08.503Z,0.10
2022-09-27T11:04:00.262Z,0.10
2022-09-27T11:06:51.852Z,0.00
2022-09-27T11:09:23.821Z,0.03
2022-09-27T11:12:06.488Z,0.00
2022-09-27T11:14:34.731Z,0.00
2022-09-27T11:17:19.520Z,0.00
2022-09-27T11:20:19.338Z,0.00
2022-09-27T11:23:09.869Z,0.00
2022-09-27T11:25:47.581Z,0.00
2022-09-27T11:28:53.715Z,0.17
2022-09-27T11:32:08.352Z,0.00
2022-09-27T11:34:38.049Z,0.00
2022-09-27T11:37:24.960Z,0.00
2022-09-27T11:40:15.935Z,0.00
2022-09-27T11:43:16.473Z,0.00
2022-09-27T11:46:23.884Z,0.08
2022-09-27T11:49:04.712Z,0.10
2022-09-27T11:51:59.945Z,0.00
2022-09-27T11:55:00.425Z,0.00
2022-09-27T11:57:36.137Z,0.00
2022-09-27T12:00:13.026Z,0.00
2022-09-27T12:02:51.783Z,0.00
2022-09-27T12:05:39.304Z,0.00
2022-09-27T12:08:34.418Z,0.00
2022-09-27T12:11:15.338Z,0.00
2022-09-27T12:13:50.941Z,0.00
2022-09-27T12:16:20.548Z,0.00
2022-09-27T12:18:51.657Z,0.00
2022-09-27T12:21:45.320Z,0.05
2022-09-27T12:24:23.711Z,0.00
2022-09-27T12:27:07.785Z,0.00
2022-09-27T12:29:38.439Z,0.00
2022-09-27T12:32:19.145Z,0.10
2022-09-27T12:35:26.575Z,0.10
2022-09-27T12:38:19.744Z,0.00
2022-09-27T12:40:52.860Z,0.00
2022-09-27T12:43:29.843Z,0.00
2022-09-27T12:46:27.905Z,0.10
2022-09-27T12:49:03.874Z,0.00
2022-09-27T12:51:37.495Z,0.00
2022-09-27T12:54:50.055Z,0.07
2022-09-27T12:57:33.918Z,0.00
2022-09-27T13:00:31.061Z,0.10
2022-09-27T13:03:17.692Z,0.00
2022-09-27T13:05:57.634Z,0.00
2022-09-27T13:08:35.187Z,0.00
2022-09-27T13:11:20.690Z,0.00
2022-09-27T13:13:48.067Z,0.00
2022-09-27T13:16:16.382Z,0.00
2022-09-27T13:18:53.222Z,0.00
2022-09-27T13:21:45.770Z,0.00
2022-09-27T13:24:37.812Z,0.00
2022-09-27T13:27:37.831Z,0.00
2022-09-27T13:30:08.775Z,0.00
2022-09-27T13:32:40.309Z,0.00
2022-09-27T13:35:27.252Z,0.00
2022-09-27T13:38:24.155Z,0.00
2022-09-27T13:40:53.456Z,0.00
2022-09-27T13:43:54.674Z,0.00
2022-09-27T13:46:56.745Z,0.00
2022-09-27T13:49:55.154Z,0.00
2022-09-27T13:52:45.155Z,0.00
2022-09-27T13:55:50.247Z,0.00
2022-09-27T13:58:34.704Z,0.10
2022-09-27T14:01:16.978Z,0.00
2022-09-27T14:03:45.668Z,0.00
2022-09-27T14:06:22.648Z,0.00
2022-09-27T14:08:53.414Z,0.00
2022-09-27T14:11:39.006Z,0.00
2022-09-27T14:14:14.779Z,0.00
2022-09-27T14:16:47.187Z,0.00
2022-09-27T14:19:25.750Z,0.00
2022-09-27T14:21:53.601Z,0.00
2022-09-27T14:24:43.230Z,0.00
2022-09-27T14:27:23.883Z,0.00
2022-09-27T14:30:06.611Z,0.00
2022-09-27T14:32:35.271Z,0.00
2022-09-27T14:35:28.207Z,0.00
2022-09-27T14:37:55.632Z,0.00
2022-09-27T14:40:23.063Z,0.00
2022-09-27T14:42:55.105Z,0.00
2022-09-27T14:45:39.875Z,0.00
2022-09-27T14:48:32.195Z,0.00
2022-09-27T14:51:17.817Z,0.00
2022-09-27T14:53:50.924Z,0.00
2022-09-27T14:56:22.029Z,0.00
2022-09-27T14:58:59.058Z,0.00
2022-09-27T15:01:26.388Z,0.00
2022-09-27T15:03:53.696Z,0.00
2022-09-27T15:06:21.328Z,0.00
2022-09-27T15:08:49.102Z,0.00
2022-09-27T15:11:18.917Z,0.00
2022-09-27T15:13:49.711Z,0.00
2022-09-27T15:16:22.262Z,0.00
2022-09-27T15:18:58.980Z,0.00
2022-09-27T15:21:32.751Z,0.00
2022-09-27T15:23:59.666Z,0.00
2022-09-27T15:26:36.643Z,0.00
2022-09-27T15:29:04.682Z,0.00
2022-09-27T15:31:36.749Z,0.00
2022-09-27T15:34:04.653Z,0.00
2022-09-27T15:36:46.686Z,0.00
2022-09-27T15:39:19.330Z,0.00
2022-09-27T15:42:06.795Z,0.00
2022-09-27T15:44:53.814Z,0.00
2022-09-27T15:47:32.478Z,0.00
2022-09-27T15:49:59.728Z,0.00
2022-09-27T15:52:44.275Z,0.00
2022-09-27T15:55:25.891Z,0.00
2022-09-27T15:57:59.548Z,0.00
2022-09-27T16:00:28.623Z,0.00
2022-09-27T16:02:55.698Z,0.00
2022-09-27T16:05:23.051Z,0.00
2022-09-27T16:07:50.964Z,0.00
2022-09-27T16:10:21.406Z,0.00
2022-09-27T16:12:48.141Z,0.00
2022-09-27T16:15:15.383Z,0.00
2022-09-27T16:17:42.635Z,0.00
2022-09-27T16:20:22.280Z,0.00
2022-09-27T16:22:49.090Z,0.00
2022-09-27T16:25:15.812Z,0.00
2022-09-27T16:27:42.827Z,0.00
2022-09-27T16:30:09.983Z,0.00
2022-09-27T16:32:47.634Z,0.00
2022-09-27T16:35:16.419Z,0.00
2022-09-27T16:37:43.498Z,0.00
2022-09-27T16:40:11.801Z,0.00
2022-09-27T16:42:38.732Z,0.00
2022-09-27T16:45:11.001Z,0.00
2022-09-27T16:47:39.576Z,0.00
2022-09-27T16:50:06.853Z,0.00
2022-09-27T16:52:34.689Z,0.00
2022-09-27T16:55:01.377Z,0.00
2022-09-27T16:57:28.284Z,0.00
2022-09-27T16:59:55.476Z,0.00
2022-09-27T17:02:23.006Z,0.00
2022-09-27T17:04:50.414Z,0.00
2022-09-27T17:07:17.909Z,0.00
2022-09-27T17:09:44.668Z,0.00
2022-09-27T17:12:12.211Z,0.00
2022-09-27T17:14:39.489Z,0.00
2022-09-27T17:17:06.759Z,0.00
2022-09-27T17:19:33.580Z,0.00
2022-09-27T17:22:00.800Z,0.00
2022-09-27T17:24:27.568Z,0.00
2022-09-27T17:26:54.479Z,0.00
2022-09-27T17:29:21.602Z,0.00
2022-09-27T17:31:48.394Z,0.00
2022-09-27T17:34:16.487Z,0.00
2022-09-27T17:36:45.233Z,0.00
2022-09-27T17:39:14.672Z,0.03
2022-09-27T17:41:41.584Z,0.00
2022-09-27T17:44:12.772Z,0.00
2022-09-27T17:46:40.878Z,0.00
2022-09-27T17:49:09.307Z,0.10
2022-09-27T17:51:38.808Z,0.00
2022-09-27T17:54:08.077Z,0.10
2022-09-27T17:56:39.987Z,0.22
2022-09-27T17:59:08.807Z,0.00
2022-09-27T18:01:36.941Z,0.00
2022-09-27T18:04:05.746Z,0.10
2022-09-27T18:06:32.557Z,0.00
2022-09-27T18:08:59.630Z,0.00
2022-09-27T18:11:27.150Z,0.00
2022-09-27T18:13:55.171Z,0.00
2022-09-27T18:16:22.843Z,0.00
2022-09-27T18:18:49.587Z,0.00
2022-09-27T18:21:19.001Z,0.00
2022-09-27T18:23:48.340Z,0.00
2022-09-27T18:26:15.422Z,0.00
2022-09-27T18:28:43.142Z,0.00
2022-09-27T18:36:44.778Z,0.00
2022-09-27T18:39:17.483Z,0.00
2022-09-27T18:41:46.283Z,0.00
2022-09-27T18:44:14.580Z,0.00
2022-09-27T18:46:42.326Z,0.00
2022-09-27T18:49:12.595Z,0.00
2022-09-27T18:51:41.852Z,0.00
2022-09-27T18:54:21.325Z,0.00
2022-09-27T18:56:50.294Z,0.00
2022-09-27T18:59:17.723Z,0.00
2022-09-27T19:01:46.086Z,0.00
2022-09-27T19:04:19.272Z,0.00
2022-09-27T19:06:49.012Z,0.00
2022-09-27T19:09:16.746Z,0.00
2022-09-27T19:11:44.492Z,0.00
2022-09-27T19:14:17.242Z,0.00
2022-09-27T19:16:45.704Z,0.00
2022-09-27T19:19:13.307Z,0.00
2022-09-27T19:21:40.487Z,0.00
2022-09-27T19:24:07.460Z,0.00
2022-09-27T19:26:35.384Z,0.00
2022-09-27T19:29:02.715Z,0.00
2022-09-27T19:31:29.765Z,0.00
2022-09-27T19:34:00.221Z,0.00
2022-09-27T19:36:28.946Z,0.00
2022-09-27T19:38:56.268Z,0.00
2022-09-27T19:41:23.344Z,0.00
2022-09-27T19:43:53.636Z,0.00
2022-09-27T19:46:22.301Z,0.00
2022-09-27T19:48:50.289Z,0.00
2022-09-27T19:51:23.102Z,0.00
2022-09-27T19:53:51.012Z,0.00
2022-09-27T19:56:18.981Z,0.00
2022-09-27T19:58:46.991Z,0.00
2022-09-27T20:01:16.746Z,0.00
2022-09-27T20:03:44.418Z,0.10
2022-09-27T20:06:14.127Z,0.05
2022-09-27T20:08:41.876Z,0.00
2022-09-27T20:11:11.789Z,0.00
2022-09-27T20:13:39.898Z,0.00
2022-09-27T20:16:09.756Z,0.00
2022-09-27T20:18:46.131Z,0.00
2022-09-27T20:21:14.577Z,0.00
2022-09-27T20:23:42.331Z,0.00
2022-09-27T20:26:12.002Z,0.00
2022-09-27T20:28:49.506Z,0.00
2022-09-27T20:31:19.395Z,0.00
2022-09-27T20:33:47.022Z,0.00
2022-09-27T20:36:16.424Z,0.00
2022-09-27T20:38:46.574Z,0.00
2022-09-27T20:41:19.176Z,0.00
2022-09-27T20:43:47.434Z,0.00
2022-09-27T20:46:16.702Z,0.00
2022-09-27T20:48:43.959Z,0.00
2022-09-27T20:51:14.457Z,0.00
2022-09-27T20:53:42.279Z,0.00
2022-09-27T20:56:22.639Z,0.00
2022-09-27T20:58:51.351Z,0.00
2022-09-27T21:01:19.730Z,0.00
2022-09-27T21:03:46.770Z,0.00
2022-09-27T21:06:14.064Z,0.00
2022-09-27T21:08:41.126Z,0.00
2022-09-27T21:11:18.371Z,0.00
2022-09-27T21:13:46.616Z,0.00
2022-09-27T21:16:17.388Z,0.00
2022-09-27T21:18:44.547Z,0.00
2022-09-27T21:21:14.043Z,0.00
2022-09-27T21:23:44.797Z,0.00
2022-09-27T21:26:19.783Z,0.00
2022-09-27T21:28:49.197Z,0.00
2022-09-27T21:31:25.282Z,0.10
2022-09-27T21:33:57.837Z,0.00
2022-09-27T21:36:52.256Z,0.00
2022-09-27T21:39:20.351Z,0.00
2022-09-27T21:41:49.947Z,0.00
2022-09-27T21:44:19.577Z,0.00
2022-09-27T21:46:47.343Z,0.00
2022-09-27T21:49:14.212Z,0.00
2022-09-27T21:51:41.352Z,0.00
2022-09-27T21:54:13.978Z,0.00
2022-09-27T21:56:41.851Z,0.00
2022-09-27T21:59:13.179Z,0.00
2022-09-27T22:01:43.680Z,0.00
2022-09-27T22:04:11.098Z,0.00
2022-09-27T22:06:39.351Z,0.00
2022-09-27T22:09:11.735Z,0.00
2022-09-27T22:11:41.163Z,0.00
2022-09-27T22:14:08.161Z,0.00
2022-09-27T22:16:35.852Z,0.00
2022-09-27T22:19:03.044Z,0.00
2022-09-27T22:21:32.503Z,0.00
2022-09-27T22:24:06.528Z,0.00
2022-09-27T22:26:39.281Z,0.00
2022-09-27T22:29:08.086Z,0.00
2022-09-27T22:31:35.529Z,0.00
2022-09-27T22:34:05.225Z,0.00
2022-09-27T22:36:32.755Z,0.00
2022-09-27T22:38:59.996Z,0.00
2022-09-27T22:41:26.913Z,0.00
2022-09-27T22:43:53.802Z,0.00
2022-09-27T22:46:22.181Z,0.00
2022-09-27T22:48:49.747Z,0.00
2022-09-27T22:51:16.912Z,0.00
2022-09-27T22:53:43.663Z,0.00
2022-09-27T22:56:18.465Z,0.00
2022-09-27T22:58:46.325Z,0.00
2022-09-27T23:01:14.436Z,0.00
2022-09-27T23:03:41.424Z,0.00
2022-09-27T23:06:08.191Z,0.00
2022-09-27T23:08:36.764Z,0.00
2022-09-27T23:11:09.022Z,0.00
2022-09-27T23:13:41.117Z,0.00
2022-09-27T23:16:16.654Z,0.00
2022-09-27T23:18:44.197Z,0.00
2022-09-27T23:21:12.898Z,0.00
2022-09-27T23:23:43.119Z,0.00
2022-09-27T23:26:13.039Z,0.00
2022-09-27T23:28:40.597Z,0.00
2022-09-27T23:31:16.414Z,0.00
2022-09-27T23:33:46.903Z,0.00
2022-09-27T23:36:17.249Z,0.00
2022-09-27T23:38:46.309Z,0.00
2022-09-27T23:41:15.079Z,0.00
2022-09-27T23:43:43.027Z,0.00
2022-09-27T23:46:10.097Z,0.00
2022-09-27T23:48:37.869Z,0.00
2022-09-27T23:51:07.234Z,0.00
2022-09-27T23:53:34.994Z,0.00
2022-09-27T23:56:03.452Z,0.00
2022-09-27T23:58:34.401Z,0.00
